sensor_id;sensor_type;location;lat;lon;timestamp;temperature;humidity
22532;DHT22;11432;46.924;7.114;2023-09-19T00:00:23;16.60;1.00
22532;DHT22;11432;46.924;7.114;2023-09-19T00:02:54;16.60;1.00
22532;DHT22;11432;46.924;7.114;2023-09-19T00:05:20;16.60;1.00
22532;DHT22;11432;46.924;7.114;2023-09-19T00:07:52;16.60;54.50
22532;DHT22;11432;46.924;7.114;2023-09-19T00:10:22;16.50;99.90
22532;DHT22;11432;46.924;7.114;2023-09-19T00:12:55;16.40;99.90
22532;DHT22;11432;46.924;7.114;2023-09-19T00:15:22;16.50;69.20
22532;DHT22;11432;46.924;7.114;2023-09-19T00:17:48;16.50;93.90
22532;DHT22;11432;46.924;7.114;2023-09-19T00:20:14;16.40;78.70
22532;DHT22;11432;46.924;7.114;2023-09-19T00:22:43;16.40;99.90
22532;DHT22;11432;46.924;7.114;2023-09-19T00:25:08;16.40;99.90
22532;DHT22;11432;46.924;7.114;2023-09-19T00:27:40;16.30;99.90
22532;DHT22;11432;46.924;7.114;2023-09-19T00:30:08;16.40;85.00
22532;DHT22;11432;46.924;7.114;2023-09-19T00:32:40;16.40;1.00
22532;DHT22;11432;46.924;7.114;2023-09-19T00:35:06;16.50;1.00
22532;DHT22;11432;46.924;7.114;2023-09-19T00:37:33;16.50;47.00
22532;DHT22;11432;46.924;7.114;2023-09-19T00:39:59;16.40;38.80
22532;DHT22;11432;46.924;7.114;2023-09-19T00:42:25;16.30;45.20
22532;DHT22;11432;46.924;7.114;2023-09-19T00:44:51;16.30;14.40
22532;DHT22;11432;46.924;7.114;2023-09-19T00:47:17;16.30;50.60
22532;DHT22;11432;46.924;7.114;2023-09-19T00:49:44;16.30;90.20
22532;DHT22;11432;46.924;7.114;2023-09-19T00:52:11;16.30;86.10
22532;DHT22;11432;46.924;7.114;2023-09-19T00:54:37;16.20;89.80
22532;DHT22;11432;46.924;7.114;2023-09-19T00:57:03;16.30;89.00
22532;DHT22;11432;46.924;7.114;2023-09-19T00:59:29;16.30;1.00
22532;DHT22;11432;46.924;7.114;2023-09-19T01:01:56;16.30;1.00
22532;DHT22;11432;46.924;7.114;2023-09-19T01:04:22;16.30;1.00
22532;DHT22;11432;46.924;7.114;2023-09-19T01:06:49;16.30;1.00
22532;DHT22;11432;46.924;7.114;2023-09-19T01:09:19;16.30;20.90
22532;DHT22;11432;46.924;7.114;2023-09-19T01:11:48;16.20;15.30
22532;DHT22;11432;46.924;7.114;2023-09-19T01:14:37;16.20;39.80
22532;DHT22;11432;46.924;7.114;2023-09-19T01:30:32;16.10;99.90
22532;DHT22;11432;46.924;7.114;2023-09-19T01:33:01;16.10;99.90
22532;DHT22;11432;46.924;7.114;2023-09-19T01:35:27;16.10;99.90
22532;DHT22;11432;46.924;7.114;2023-09-19T01:37:53;16.00;99.90
22532;DHT22;11432;46.924;7.114;2023-09-19T01:40:21;16.10;99.90
22532;DHT22;11432;46.924;7.114;2023-09-19T01:42:58;16.10;99.90
22532;DHT22;11432;46.924;7.114;2023-09-19T01:47:55;16.10;99.90
22532;DHT22;11432;46.924;7.114;2023-09-19T01:53:05;16.10;99.90
22532;DHT22;11432;46.924;7.114;2023-09-19T01:55:46;16.00;99.90
22532;DHT22;11432;46.924;7.114;2023-09-19T01:58:42;16.00;99.90
22532;DHT22;11432;46.924;7.114;2023-09-19T02:01:13;16.00;99.90
22532;DHT22;11432;46.924;7.114;2023-09-19T02:03:41;16.00;99.90
22532;DHT22;11432;46.924;7.114;2023-09-19T02:06:07;16.00;99.90
22532;DHT22;11432;46.924;7.114;2023-09-19T02:08:36;16.00;99.90
22532;DHT22;11432;46.924;7.114;2023-09-19T02:11:02;16.00;99.90
22532;DHT22;11432;46.924;7.114;2023-09-19T02:13:28;16.10;99.90
22532;DHT22;11432;46.924;7.114;2023-09-19T02:15:54;16.10;99.90
22532;DHT22;11432;46.924;7.114;2023-09-19T02:18:21;16.10;99.90
22532;DHT22;11432;46.924;7.114;2023-09-19T02:20:47;16.10;99.90
22532;DHT22;11432;46.924;7.114;2023-09-19T02:23:13;16.10;99.90
22532;DHT22;11432;46.924;7.114;2023-09-19T02:25:39;16.00;99.90
22532;DHT22;11432;46.924;7.114;2023-09-19T02:28:06;16.00;99.90
22532;DHT22;11432;46.924;7.114;2023-09-19T02:30:32;16.00;99.90
22532;DHT22;11432;46.924;7.114;2023-09-19T02:32:58;15.90;99.90
22532;DHT22;11432;46.924;7.114;2023-09-19T02:35:27;15.90;99.90
22532;DHT22;11432;46.924;7.114;2023-09-19T02:37:53;16.00;99.90
22532;DHT22;11432;46.924;7.114;2023-09-19T02:40:19;16.00;99.90
22532;DHT22;11432;46.924;7.114;2023-09-19T02:42:48;15.90;99.90
22532;DHT22;11432;46.924;7.114;2023-09-19T02:45:18;15.90;99.90
22532;DHT22;11432;46.924;7.114;2023-09-19T02:47:47;15.80;99.90
22532;DHT22;11432;46.924;7.114;2023-09-19T02:50:14;15.80;99.90
22532;DHT22;11432;46.924;7.114;2023-09-19T02:52:42;15.80;99.90
22532;DHT22;11432;46.924;7.114;2023-09-19T02:55:12;15.80;99.90
22532;DHT22;11432;46.924;7.114;2023-09-19T02:57:39;15.80;99.90
22532;DHT22;11432;46.924;7.114;2023-09-19T03:00:09;15.80;99.90
22532;DHT22;11432;46.924;7.114;2023-09-19T03:02:37;15.80;99.90
22532;DHT22;11432;46.924;7.114;2023-09-19T03:05:05;15.90;99.90
22532;DHT22;11432;46.924;7.114;2023-09-19T03:07:32;15.90;99.90
22532;DHT22;11432;46.924;7.114;2023-09-19T03:09:57;15.90;99.90
22532;DHT22;11432;46.924;7.114;2023-09-19T03:12:23;15.90;99.90
22532;DHT22;11432;46.924;7.114;2023-09-19T03:14:49;15.90;99.90
22532;DHT22;11432;46.924;7.114;2023-09-19T03:17:15;15.90;99.90
22532;DHT22;11432;46.924;7.114;2023-09-19T03:19:41;15.90;99.90
22532;DHT22;11432;46.924;7.114;2023-09-19T03:22:07;15.90;99.90
22532;DHT22;11432;46.924;7.114;2023-09-19T03:24:33;15.90;99.90
22532;DHT22;11432;46.924;7.114;2023-09-19T03:27:00;15.90;99.90
22532;DHT22;11432;46.924;7.114;2023-09-19T03:29:26;15.90;99.90
22532;DHT22;11432;46.924;7.114;2023-09-19T03:31:52;15.90;99.90
22532;DHT22;11432;46.924;7.114;2023-09-19T03:34:20;15.80;99.90
22532;DHT22;11432;46.924;7.114;2023-09-19T03:36:46;15.80;99.90
22532;DHT22;11432;46.924;7.114;2023-09-19T03:39:11;15.80;99.90
22532;DHT22;11432;46.924;7.114;2023-09-19T03:41:37;15.80;99.90
22532;DHT22;11432;46.924;7.114;2023-09-19T03:44:04;15.80;99.90
22532;DHT22;11432;46.924;7.114;2023-09-19T03:46:30;15.80;99.90
22532;DHT22;11432;46.924;7.114;2023-09-19T03:48:55;15.80;99.90
22532;DHT22;11432;46.924;7.114;2023-09-19T03:51:21;15.80;99.90
22532;DHT22;11432;46.924;7.114;2023-09-19T03:53:47;15.80;99.90
22532;DHT22;11432;46.924;7.114;2023-09-19T03:56:14;15.80;99.90
22532;DHT22;11432;46.924;7.114;2023-09-19T03:58:40;15.80;99.90
22532;DHT22;11432;46.924;7.114;2023-09-19T04:01:06;15.80;99.90
22532;DHT22;11432;46.924;7.114;2023-09-19T04:03:33;15.90;99.90
22532;DHT22;11432;46.924;7.114;2023-09-19T04:06:15;15.90;99.90
22532;DHT22;11432;46.924;7.114;2023-09-19T04:08:41;15.90;99.90
22532;DHT22;11432;46.924;7.114;2023-09-19T04:11:07;15.90;99.90
22532;DHT22;11432;46.924;7.114;2023-09-19T04:13:32;15.90;99.90
22532;DHT22;11432;46.924;7.114;2023-09-19T04:15:58;15.90;99.90
22532;DHT22;11432;46.924;7.114;2023-09-19T04:18:24;15.80;99.90
22532;DHT22;11432;46.924;7.114;2023-09-19T04:20:50;15.80;99.90
22532;DHT22;11432;46.924;7.114;2023-09-19T04:23:16;15.80;99.90
22532;DHT22;11432;46.924;7.114;2023-09-19T04:25:42;15.80;99.90
22532;DHT22;11432;46.924;7.114;2023-09-19T04:28:08;15.70;99.90
22532;DHT22;11432;46.924;7.114;2023-09-19T04:30:36;15.70;99.90
22532;DHT22;11432;46.924;7.114;2023-09-19T04:33:03;15.70;99.90
22532;DHT22;11432;46.924;7.114;2023-09-19T04:35:29;15.70;99.90
22532;DHT22;11432;46.924;7.114;2023-09-19T04:37:57;15.70;99.90
22532;DHT22;11432;46.924;7.114;2023-09-19T04:40:23;15.60;99.90
22532;DHT22;11432;46.924;7.114;2023-09-19T04:42:55;15.60;99.90
22532;DHT22;11432;46.924;7.114;2023-09-19T04:45:28;15.60;99.90
22532;DHT22;11432;46.924;7.114;2023-09-19T04:47:53;15.60;99.90
22532;DHT22;11432;46.924;7.114;2023-09-19T04:50:19;15.70;99.90
22532;DHT22;11432;46.924;7.114;2023-09-19T04:52:49;15.70;99.90
22532;DHT22;11432;46.924;7.114;2023-09-19T04:55:16;15.70;99.90
22532;DHT22;11432;46.924;7.114;2023-09-19T04:57:47;15.70;99.90
22532;DHT22;11432;46.924;7.114;2023-09-19T05:00:22;15.70;99.90
22532;DHT22;11432;46.924;7.114;2023-09-19T05:02:55;15.70;99.90
22532;DHT22;11432;46.924;7.114;2023-09-19T05:05:24;15.70;99.90
22532;DHT22;11432;46.924;7.114;2023-09-19T05:07:50;15.70;99.90
22532;DHT22;11432;46.924;7.114;2023-09-19T05:10:17;15.70;99.90
22532;DHT22;11432;46.924;7.114;2023-09-19T05:12:44;15.70;99.90
22532;DHT22;11432;46.924;7.114;2023-09-19T05:15:14;15.70;99.90
22532;DHT22;11432;46.924;7.114;2023-09-19T05:17:40;15.80;99.90
22532;DHT22;11432;46.924;7.114;2023-09-19T05:20:06;15.80;99.90
22532;DHT22;11432;46.924;7.114;2023-09-19T05:22:42;15.80;99.90
22532;DHT22;11432;46.924;7.114;2023-09-19T05:25:11;15.80;99.90
22532;DHT22;11432;46.924;7.114;2023-09-19T05:27:42;15.80;99.90
22532;DHT22;11432;46.924;7.114;2023-09-19T05:30:08;15.80;99.90
22532;DHT22;11432;46.924;7.114;2023-09-19T05:32:34;15.80;99.90
22532;DHT22;11432;46.924;7.114;2023-09-19T05:34:59;15.80;99.90
22532;DHT22;11432;46.924;7.114;2023-09-19T05:37:25;15.80;99.90
22532;DHT22;11432;46.924;7.114;2023-09-19T05:39:51;15.70;99.90
22532;DHT22;11432;46.924;7.114;2023-09-19T05:42:19;15.80;99.90
22532;DHT22;11432;46.924;7.114;2023-09-19T05:44:44;15.80;99.90
22532;DHT22;11432;46.924;7.114;2023-09-19T05:47:10;15.80;99.90
22532;DHT22;11432;46.924;7.114;2023-09-19T05:49:35;15.80;99.90
22532;DHT22;11432;46.924;7.114;2023-09-19T05:52:05;15.80;99.90
22532;DHT22;11432;46.924;7.114;2023-09-19T05:54:31;15.80;99.90
22532;DHT22;11432;46.924;7.114;2023-09-19T05:56:58;15.80;99.90
22532;DHT22;11432;46.924;7.114;2023-09-19T05:59:24;15.80;99.90
22532;DHT22;11432;46.924;7.114;2023-09-19T06:01:49;15.80;99.90
22532;DHT22;11432;46.924;7.114;2023-09-19T06:04:15;15.80;99.90
22532;DHT22;11432;46.924;7.114;2023-09-19T06:06:41;15.90;99.90
22532;DHT22;11432;46.924;7.114;2023-09-19T06:09:07;15.90;99.90
22532;DHT22;11432;46.924;7.114;2023-09-19T06:11:35;15.90;99.90
22532;DHT22;11432;46.924;7.114;2023-09-19T06:14:02;15.90;99.90
22532;DHT22;11432;46.924;7.114;2023-09-19T06:16:31;15.90;99.90
22532;DHT22;11432;46.924;7.114;2023-09-19T06:18:59;16.00;99.90
22532;DHT22;11432;46.924;7.114;2023-09-19T06:21:26;16.00;99.90
22532;DHT22;11432;46.924;7.114;2023-09-19T06:23:53;16.10;99.90
22532;DHT22;11432;46.924;7.114;2023-09-19T06:26:19;16.20;99.90
22532;DHT22;11432;46.924;7.114;2023-09-19T06:28:44;16.30;99.90
22532;DHT22;11432;46.924;7.114;2023-09-19T06:31:10;16.30;99.90
22532;DHT22;11432;46.924;7.114;2023-09-19T06:33:37;16.40;99.90
22532;DHT22;11432;46.924;7.114;2023-09-19T06:36:06;16.40;99.90
22532;DHT22;11432;46.924;7.114;2023-09-19T06:38:32;16.50;99.90
22532;DHT22;11432;46.924;7.114;2023-09-19T06:41:02;16.50;99.90
22532;DHT22;11432;46.924;7.114;2023-09-19T06:43:32;16.60;99.90
22532;DHT22;11432;46.924;7.114;2023-09-19T06:45:59;16.50;99.90
22532;DHT22;11432;46.924;7.114;2023-09-19T06:48:25;16.50;99.90
22532;DHT22;11432;46.924;7.114;2023-09-19T06:50:53;16.50;99.90
22532;DHT22;11432;46.924;7.114;2023-09-19T06:53:20;16.60;99.90
22532;DHT22;11432;46.924;7.114;2023-09-19T06:55:46;16.70;99.90
22532;DHT22;11432;46.924;7.114;2023-09-19T06:58:13;16.70;99.90
22532;DHT22;11432;46.924;7.114;2023-09-19T07:00:38;16.50;99.90
22532;DHT22;11432;46.924;7.114;2023-09-19T07:03:05;16.40;99.90
22532;DHT22;11432;46.924;7.114;2023-09-19T07:05:37;16.40;99.90
22532;DHT22;11432;46.924;7.114;2023-09-19T07:08:08;16.30;99.90
22532;DHT22;11432;46.924;7.114;2023-09-19T07:10:36;16.20;99.90
22532;DHT22;11432;46.924;7.114;2023-09-19T07:13:04;16.20;99.90
22532;DHT22;11432;46.924;7.114;2023-09-19T07:15:32;16.20;99.90
22532;DHT22;11432;46.924;7.114;2023-09-19T07:18:01;16.20;99.90
22532;DHT22;11432;46.924;7.114;2023-09-19T07:20:27;16.30;99.90
22532;DHT22;11432;46.924;7.114;2023-09-19T07:22:54;16.30;99.90
22532;DHT22;11432;46.924;7.114;2023-09-19T07:25:21;16.40;99.90
22532;DHT22;11432;46.924;7.114;2023-09-19T07:27:46;16.40;99.90
22532;DHT22;11432;46.924;7.114;2023-09-19T07:30:12;16.50;99.90
22532;DHT22;11432;46.924;7.114;2023-09-19T07:32:39;16.70;99.90
22532;DHT22;11432;46.924;7.114;2023-09-19T07:35:06;16.70;99.90
22532;DHT22;11432;46.924;7.114;2023-09-19T07:37:32;16.90;99.90
22532;DHT22;11432;46.924;7.114;2023-09-19T07:40:02;17.00;99.90
22532;DHT22;11432;46.924;7.114;2023-09-19T07:42:28;17.10;99.90
22532;DHT22;11432;46.924;7.114;2023-09-19T07:44:54;17.20;99.90
22532;DHT22;11432;46.924;7.114;2023-09-19T07:47:22;17.20;99.90
22532;DHT22;11432;46.924;7.114;2023-09-19T07:49:48;17.20;99.90
22532;DHT22;11432;46.924;7.114;2023-09-19T07:52:13;17.30;99.90
22532;DHT22;11432;46.924;7.114;2023-09-19T07:54:39;17.50;99.90
22532;DHT22;11432;46.924;7.114;2023-09-19T07:57:06;17.60;99.90
22532;DHT22;11432;46.924;7.114;2023-09-19T07:59:32;17.60;99.90
22532;DHT22;11432;46.924;7.114;2023-09-19T08:01:58;17.70;99.90
22532;DHT22;11432;46.924;7.114;2023-09-19T08:04:24;17.70;99.90
22532;DHT22;11432;46.924;7.114;2023-09-19T08:06:51;17.60;99.90
22532;DHT22;11432;46.924;7.114;2023-09-19T08:09:17;17.50;99.90
22532;DHT22;11432;46.924;7.114;2023-09-19T08:11:47;17.50;99.90
22532;DHT22;11432;46.924;7.114;2023-09-19T08:14:13;17.70;99.90
22532;DHT22;11432;46.924;7.114;2023-09-19T08:16:40;17.90;99.90
22532;DHT22;11432;46.924;7.114;2023-09-19T08:19:05;17.90;99.90
22532;DHT22;11432;46.924;7.114;2023-09-19T08:21:31;17.90;99.90
22532;DHT22;11432;46.924;7.114;2023-09-19T08:23:57;18.10;99.90
22532;DHT22;11432;46.924;7.114;2023-09-19T08:26:23;18.20;99.90
22532;DHT22;11432;46.924;7.114;2023-09-19T08:28:49;18.40;99.90
22532;DHT22;11432;46.924;7.114;2023-09-19T08:31:16;18.30;99.90
22532;DHT22;11432;46.924;7.114;2023-09-19T08:33:42;18.20;99.90
22532;DHT22;11432;46.924;7.114;2023-09-19T08:36:09;18.40;99.90
22532;DHT22;11432;46.924;7.114;2023-09-19T08:38:35;18.50;1.00
22532;DHT22;11432;46.924;7.114;2023-09-19T08:41:06;18.50;1.00
22532;DHT22;11432;46.924;7.114;2023-09-19T08:43:33;18.60;1.00
22532;DHT22;11432;46.924;7.114;2023-09-19T08:48:32;18.50;1.00
22532;DHT22;11432;46.924;7.114;2023-09-19T08:53:45;18.70;1.00
22532;DHT22;11432;46.924;7.114;2023-09-19T08:56:17;18.90;1.00
22532;DHT22;11432;46.924;7.114;2023-09-19T08:58:57;18.80;1.00
22532;DHT22;11432;46.924;7.114;2023-09-19T09:01:24;18.80;1.00
22532;DHT22;11432;46.924;7.114;2023-09-19T09:03:56;18.90;1.00
22532;DHT22;11432;46.924;7.114;2023-09-19T09:06:24;18.80;1.00
22532;DHT22;11432;46.924;7.114;2023-09-19T09:08:53;18.80;1.00
22532;DHT22;11432;46.924;7.114;2023-09-19T09:11:19;18.80;1.00
22532;DHT22;11432;46.924;7.114;2023-09-19T09:13:45;18.90;1.00
22532;DHT22;11432;46.924;7.114;2023-09-19T09:16:12;19.00;1.00
22532;DHT22;11432;46.924;7.114;2023-09-19T09:18:39;19.10;1.00
22532;DHT22;11432;46.924;7.114;2023-09-19T09:21:05;19.50;1.00
22532;DHT22;11432;46.924;7.114;2023-09-19T09:23:31;19.80;1.00
22532;DHT22;11432;46.924;7.114;2023-09-19T09:25:58;19.80;1.00
22532;DHT22;11432;46.924;7.114;2023-09-19T09:28:29;19.80;1.00
22532;DHT22;11432;46.924;7.114;2023-09-19T09:30:58;19.80;1.00
22532;DHT22;11432;46.924;7.114;2023-09-19T09:33:24;19.80;1.00
22532;DHT22;11432;46.924;7.114;2023-09-19T09:36:02;19.90;1.00
22532;DHT22;11432;46.924;7.114;2023-09-19T09:38:48;20.10;1.00
22532;DHT22;11432;46.924;7.114;2023-09-19T09:41:16;20.20;1.00
22532;DHT22;11432;46.924;7.114;2023-09-19T09:43:53;20.60;1.00
22532;DHT22;11432;46.924;7.114;2023-09-19T09:46:20;20.80;1.00
22532;DHT22;11432;46.924;7.114;2023-09-19T09:48:57;21.00;8.50
22532;DHT22;11432;46.924;7.114;2023-09-19T09:51:49;20.90;5.30
22532;DHT22;11432;46.924;7.114;2023-09-19T09:54:25;20.90;19.20
22532;DHT22;11432;46.924;7.114;2023-09-19T09:57:08;20.90;3.90
22532;DHT22;11432;46.924;7.114;2023-09-19T09:59:56;21.10;6.90
22532;DHT22;11432;46.924;7.114;2023-09-19T10:02:37;21.50;5.10
22532;DHT22;11432;46.924;7.114;2023-09-19T10:05:16;21.10;1.00
22532;DHT22;11432;46.924;7.114;2023-09-19T10:08:12;20.50;1.00
22532;DHT22;11432;46.924;7.114;2023-09-19T10:10:41;20.40;1.00
22532;DHT22;11432;46.924;7.114;2023-09-19T10:13:11;20.50;1.00
22532;DHT22;11432;46.924;7.114;2023-09-19T10:15:51;20.70;1.00
22532;DHT22;11432;46.924;7.114;2023-09-19T10:18:23;20.90;1.00
22532;DHT22;11432;46.924;7.114;2023-09-19T10:20:49;20.70;1.00
22532;DHT22;11432;46.924;7.114;2023-09-19T10:23:18;20.80;1.00
22532;DHT22;11432;46.924;7.114;2023-09-19T10:25:48;20.80;1.00
22532;DHT22;11432;46.924;7.114;2023-09-19T10:28:16;20.50;1.00
22532;DHT22;11432;46.924;7.114;2023-09-19T10:30:46;20.50;1.00
22532;DHT22;11432;46.924;7.114;2023-09-19T10:33:20;21.00;1.00
22532;DHT22;11432;46.924;7.114;2023-09-19T10:35:47;21.40;11.60
22532;DHT22;11432;46.924;7.114;2023-09-19T10:38:17;21.60;11.50
22532;DHT22;11432;46.924;7.114;2023-09-19T10:40:44;21.70;7.50
22532;DHT22;11432;46.924;7.114;2023-09-19T10:43:15;22.00;16.90
22532;DHT22;11432;46.924;7.114;2023-09-19T10:45:44;21.90;15.50
22532;DHT22;11432;46.924;7.114;2023-09-19T10:48:10;21.70;23.10
22532;DHT22;11432;46.924;7.114;2023-09-19T10:56:09;22.50;14.40
22532;DHT22;11432;46.924;7.114;2023-09-19T10:58:43;22.60;15.80
22532;DHT22;11432;46.924;7.114;2023-09-19T11:01:11;22.20;13.30
22532;DHT22;11432;46.924;7.114;2023-09-19T11:03:43;22.30;14.20
22532;DHT22;11432;46.924;7.114;2023-09-19T11:06:15;22.20;5.30
22532;DHT22;11432;46.924;7.114;2023-09-19T11:09:02;22.30;10.20
22532;DHT22;11432;46.924;7.114;2023-09-19T11:11:45;22.50;4.10
22532;DHT22;11432;46.924;7.114;2023-09-19T11:30:52;23.60;12.70
22532;DHT22;11432;46.924;7.114;2023-09-19T11:33:28;24.60;6.60
22532;DHT22;11432;46.924;7.114;2023-09-19T11:36:14;25.00;13.90
22532;DHT22;11432;46.924;7.114;2023-09-19T11:46:33;25.90;1.00
22532;DHT22;11432;46.924;7.114;2023-09-19T11:49:09;26.30;1.00
22532;DHT22;11432;46.924;7.114;2023-09-19T11:51:42;25.60;1.00
22532;DHT22;11432;46.924;7.114;2023-09-19T11:54:12;24.10;1.00
22532;DHT22;11432;46.924;7.114;2023-09-19T11:56:45;23.80;1.00
22532;DHT22;11432;46.924;7.114;2023-09-19T11:59:11;24.80;1.00
22532;DHT22;11432;46.924;7.114;2023-09-19T12:01:38;25.90;1.00
22532;DHT22;11432;46.924;7.114;2023-09-19T12:04:11;26.60;1.00
22532;DHT22;11432;46.924;7.114;2023-09-19T12:06:37;26.50;1.00
22532;DHT22;11432;46.924;7.114;2023-09-19T12:09:13;25.80;1.00
22532;DHT22;11432;46.924;7.114;2023-09-19T12:11:43;25.20;1.00
22532;DHT22;11432;46.924;7.114;2023-09-19T12:14:11;25.50;1.00
22532;DHT22;11432;46.924;7.114;2023-09-19T12:16:37;25.50;1.00
22532;DHT22;11432;46.924;7.114;2023-09-19T12:19:20;26.80;1.00
22532;DHT22;11432;46.924;7.114;2023-09-19T12:21:57;26.70;1.00
22532;DHT22;11432;46.924;7.114;2023-09-19T12:24:26;24.80;1.00
22532;DHT22;11432;46.924;7.114;2023-09-19T12:26:59;24.50;1.00
22532;DHT22;11432;46.924;7.114;2023-09-19T12:29:27;25.40;1.00
22532;DHT22;11432;46.924;7.114;2023-09-19T12:31:56;26.50;1.00
22532;DHT22;11432;46.924;7.114;2023-09-19T12:34:32;26.30;1.00
22532;DHT22;11432;46.924;7.114;2023-09-19T12:39:42;27.60;1.00
22532;DHT22;11432;46.924;7.114;2023-09-19T12:42:11;28.40;1.00
22532;DHT22;11432;46.924;7.114;2023-09-19T12:44:42;28.40;1.00
22532;DHT22;11432;46.924;7.114;2023-09-19T12:47:12;28.50;1.00
22532;DHT22;11432;46.924;7.114;2023-09-19T12:50:10;29.40;1.00
22532;DHT22;11432;46.924;7.114;2023-09-19T12:52:49;27.40;1.00
22532;DHT22;11432;46.924;7.114;2023-09-19T12:55:28;25.90;1.00
22532;DHT22;11432;46.924;7.114;2023-09-19T12:58:12;27.20;1.00
22532;DHT22;11432;46.924;7.114;2023-09-19T13:00:44;28.10;1.00
22532;DHT22;11432;46.924;7.114;2023-09-19T13:03:33;29.00;1.00
22532;DHT22;11432;46.924;7.114;2023-09-19T13:06:03;29.50;1.00
22532;DHT22;11432;46.924;7.114;2023-09-19T13:08:36;27.80;1.00
22532;DHT22;11432;46.924;7.114;2023-09-19T13:11:09;27.70;1.00
22532;DHT22;11432;46.924;7.114;2023-09-19T13:13:36;27.00;1.00
22532;DHT22;11432;46.924;7.114;2023-09-19T13:16:03;26.80;1.00
22532;DHT22;11432;46.924;7.114;2023-09-19T13:18:41;27.90;1.00
22532;DHT22;11432;46.924;7.114;2023-09-19T13:21:13;26.10;1.00
22532;DHT22;11432;46.924;7.114;2023-09-19T13:23:53;27.10;1.00
22532;DHT22;11432;46.924;7.114;2023-09-19T13:26:21;26.70;1.00
22532;DHT22;11432;46.924;7.114;2023-09-19T13:28:48;26.60;1.00
22532;DHT22;11432;46.924;7.114;2023-09-19T13:31:14;27.90;1.00
22532;DHT22;11432;46.924;7.114;2023-09-19T13:33:44;29.00;1.00
22532;DHT22;11432;46.924;7.114;2023-09-19T13:36:11;29.30;1.00
22532;DHT22;11432;46.924;7.114;2023-09-19T13:38:37;29.80;1.00
22532;DHT22;11432;46.924;7.114;2023-09-19T13:41:03;28.90;1.00
22532;DHT22;11432;46.924;7.114;2023-09-19T13:43:28;29.50;1.00
22532;DHT22;11432;46.924;7.114;2023-09-19T13:45:54;28.50;1.00
22532;DHT22;11432;46.924;7.114;2023-09-19T13:48:20;28.20;1.00
22532;DHT22;11432;46.924;7.114;2023-09-19T13:50:48;28.40;1.00
22532;DHT22;11432;46.924;7.114;2023-09-19T13:53:14;28.30;1.00
22532;DHT22;11432;46.924;7.114;2023-09-19T13:55:39;28.80;1.00
22532;DHT22;11432;46.924;7.114;2023-09-19T13:58:05;28.80;1.00
22532;DHT22;11432;46.924;7.114;2023-09-19T14:00:32;29.40;1.00
22532;DHT22;11432;46.924;7.114;2023-09-19T14:03:03;29.40;1.00
22532;DHT22;11432;46.924;7.114;2023-09-19T14:05:29;29.90;1.00
22532;DHT22;11432;46.924;7.114;2023-09-19T14:07:55;29.80;1.00
22532;DHT22;11432;46.924;7.114;2023-09-19T14:10:21;30.10;1.00
22532;DHT22;11432;46.924;7.114;2023-09-19T14:12:47;30.20;1.00
22532;DHT22;11432;46.924;7.114;2023-09-19T14:15:13;29.40;1.00
22532;DHT22;11432;46.924;7.114;2023-09-19T14:17:39;29.00;1.00
22532;DHT22;11432;46.924;7.114;2023-09-19T14:20:08;29.70;1.00
22532;DHT22;11432;46.924;7.114;2023-09-19T14:22:35;29.70;1.00
22532;DHT22;11432;46.924;7.114;2023-09-19T14:25:04;29.80;1.00
22532;DHT22;11432;46.924;7.114;2023-09-19T14:27:30;29.50;1.00
22532;DHT22;11432;46.924;7.114;2023-09-19T14:29:56;29.40;1.00
22532;DHT22;11432;46.924;7.114;2023-09-19T14:32:23;29.60;1.00
22532;DHT22;11432;46.924;7.114;2023-09-19T14:34:48;29.60;1.00
22532;DHT22;11432;46.924;7.114;2023-09-19T14:37:14;29.50;1.00
22532;DHT22;11432;46.924;7.114;2023-09-19T14:39:41;27.80;1.00
22532;DHT22;11432;46.924;7.114;2023-09-19T14:42:10;28.90;1.00
22532;DHT22;11432;46.924;7.114;2023-09-19T14:44:36;29.60;1.00
22532;DHT22;11432;46.924;7.114;2023-09-19T14:47:03;30.50;1.00
22532;DHT22;11432;46.924;7.114;2023-09-19T14:49:33;30.60;1.00
22532;DHT22;11432;46.924;7.114;2023-09-19T14:51:59;30.40;1.00
22532;DHT22;11432;46.924;7.114;2023-09-19T14:54:24;30.40;1.00
22532;DHT22;11432;46.924;7.114;2023-09-19T14:56:50;30.40;1.00
22532;DHT22;11432;46.924;7.114;2023-09-19T14:59:21;29.80;1.00
22532;DHT22;11432;46.924;7.114;2023-09-19T15:01:47;28.70;1.00
22532;DHT22;11432;46.924;7.114;2023-09-19T15:04:15;28.80;1.00
22532;DHT22;11432;46.924;7.114;2023-09-19T15:06:41;29.70;1.00
22532;DHT22;11432;46.924;7.114;2023-09-19T15:09:06;30.00;1.00
22532;DHT22;11432;46.924;7.114;2023-09-19T15:11:34;30.00;1.00
22532;DHT22;11432;46.924;7.114;2023-09-19T15:13:59;29.60;1.00
22532;DHT22;11432;46.924;7.114;2023-09-19T15:16:25;27.90;1.00
22532;DHT22;11432;46.924;7.114;2023-09-19T15:18:50;27.80;1.00
22532;DHT22;11432;46.924;7.114;2023-09-19T15:21:17;27.40;1.00
22532;DHT22;11432;46.924;7.114;2023-09-19T15:23:43;27.10;1.00
22532;DHT22;11432;46.924;7.114;2023-09-19T15:26:14;27.50;1.00
22532;DHT22;11432;46.924;7.114;2023-09-19T15:28:42;28.60;1.00
22532;DHT22;11432;46.924;7.114;2023-09-19T15:31:12;28.10;1.00
22532;DHT22;11432;46.924;7.114;2023-09-19T15:33:38;27.80;1.00
22532;DHT22;11432;46.924;7.114;2023-09-19T15:36:11;28.60;1.00
22532;DHT22;11432;46.924;7.114;2023-09-19T15:38:56;28.40;1.00
22532;DHT22;11432;46.924;7.114;2023-09-19T15:41:33;27.70;1.00
22532;DHT22;11432;46.924;7.114;2023-09-19T15:44:00;27.00;1.00
22532;DHT22;11432;46.924;7.114;2023-09-19T15:46:31;25.80;1.00
22532;DHT22;11432;46.924;7.114;2023-09-19T15:48:57;25.50;1.00
22532;DHT22;11432;46.924;7.114;2023-09-19T15:51:24;25.20;1.00
22532;DHT22;11432;46.924;7.114;2023-09-19T15:53:52;24.90;1.00
22532;DHT22;11432;46.924;7.114;2023-09-19T15:56:19;24.70;1.00
22532;DHT22;11432;46.924;7.114;2023-09-19T15:58:50;24.60;1.00
22532;DHT22;11432;46.924;7.114;2023-09-19T16:01:16;24.60;1.00
22532;DHT22;11432;46.924;7.114;2023-09-19T16:03:53;24.60;1.00
22532;DHT22;11432;46.924;7.114;2023-09-19T16:06:22;24.50;1.00
22532;DHT22;11432;46.924;7.114;2023-09-19T16:08:52;24.20;1.00
22532;DHT22;11432;46.924;7.114;2023-09-19T16:11:19;24.00;1.00
22532;DHT22;11432;46.924;7.114;2023-09-19T16:13:49;24.00;1.00
22532;DHT22;11432;46.924;7.114;2023-09-19T16:16:16;24.10;1.00
22532;DHT22;11432;46.924;7.114;2023-09-19T16:18:54;24.40;1.00
22532;DHT22;11432;46.924;7.114;2023-09-19T16:21:26;25.40;1.00
22532;DHT22;11432;46.924;7.114;2023-09-19T16:23:52;25.60;1.00
22532;DHT22;11432;46.924;7.114;2023-09-19T16:26:22;25.20;1.00
22532;DHT22;11432;46.924;7.114;2023-09-19T16:28:56;25.30;1.00
22532;DHT22;11432;46.924;7.114;2023-09-19T16:31:26;25.40;1.00
22532;DHT22;11432;46.924;7.114;2023-09-19T16:33:53;25.40;1.00
22532;DHT22;11432;46.924;7.114;2023-09-19T16:36:19;25.40;1.00
22532;DHT22;11432;46.924;7.114;2023-09-19T16:38:47;25.10;1.00
22532;DHT22;11432;46.924;7.114;2023-09-19T16:41:13;25.30;1.00
22532;DHT22;11432;46.924;7.114;2023-09-19T16:43:40;25.00;1.00